Time;durP1;ratioP1;P1;durP2;ratioP2;P2;SDS_P1;SDS_P2;PMS_P1;PMS_P2;Temp;Humidity;BMP_temperature;BMP_pressure;BME280_temperature;BME280_humidity;BME280_pressure;Samples;Min_cycle;Max_cycle;Signal;HPM_P1;HPM_P2
2023/05/08 00:01:41;;;;;;;14.40;11.07;;;18.00;99.90;;;;;;5035980;28;20200;-34
2023/05/08 00:04:08;;;;;;;12.20;11.00;;;17.90;99.90;;;;;;5043265;28;20589;-33
2023/05/08 00:06:35;;;;;;;13.65;11.52;;;17.90;99.90;;;;;;5028582;28;20213;-33
2023/05/08 00:09:04;;;;;;;12.27;11.07;;;17.90;99.90;;;;;;5007376;28;20223;-34
2023/05/08 00:11:31;;;;;;;12.45;11.25;;;17.90;99.90;;;;;;5039205;28;20270;-34
2023/05/08 00:14:03;;;;;;;11.73;10.55;;;17.90;99.90;;;;;;5024629;28;20205;-34
2023/05/08 00:16:31;;;;;;;12.00;10.35;;;17.90;99.90;;;;;;5034756;28;20743;-33
2023/05/08 00:18:59;;;;;;;11.20;10.10;;;17.90;99.90;;;;;;5027830;28;20310;-34
2023/05/08 00:21:31;;;;;;;11.65;10.40;;;17.90;99.90;;;;;;5022591;28;20651;-34
2023/05/08 00:23:58;;;;;;;10.95;9.95;;;17.90;99.90;;;;;;5022771;28;20496;-34
2023/05/08 00:26:28;;;;;;;11.65;10.55;;;17.90;99.90;;;;;;5024070;28;20717;-34
2023/05/08 00:28:55;;;;;;;10.63;9.57;;;17.90;99.90;;;;;;5022351;28;20295;-34
2023/05/08 00:31:25;;;;;;;11.38;10.27;;;17.90;99.90;;;;;;5032731;28;20204;-33
2023/05/08 00:33:52;;;;;;;11.05;9.98;;;17.90;99.90;;;;;;5029221;28;20222;-33
2023/05/08 00:36:22;;;;;;;10.73;9.60;;;17.90;99.90;;;;;;5024092;28;20217;-34
2023/05/08 00:38:49;;;;;;;10.65;9.65;;;17.90;99.90;;;;;;5022736;28;20683;-34
2023/05/08 00:41:19;;;;;;;9.82;8.93;;;17.90;99.90;;;;;;5024201;28;20642;-33
2023/05/08 00:43:46;;;;;;;9.65;8.65;;;17.90;99.90;;;;;;5035459;28;20585;-34
2023/05/08 00:46:17;;;;;;;8.85;8.15;;;17.90;99.90;;;;;;5044842;28;20219;-34
2023/05/08 00:48:45;;;;;;;9.10;8.25;;;17.90;99.90;;;;;;5046102;28;20614;-34
2023/05/08 00:51:14;;;;;;;8.90;8.10;;;17.90;99.90;;;;;;5011789;28;20324;-34
2023/05/08 00:53:45;;;;;;;9.45;8.63;;;17.90;99.90;;;;;;5027079;28;20220;-33
2023/05/08 00:56:15;;;;;;;9.48;8.48;;;17.90;99.90;;;;;;5031959;28;20343;-34
2023/05/08 00:58:44;;;;;;;9.80;8.82;;;17.90;99.90;;;;;;5032857;28;20200;-34
2023/05/08 01:01:11;;;;;;;9.63;8.82;;;17.80;99.90;;;;;;5027190;28;20606;-34
2023/05/08 01:03:41;;;;;;;10.15;9.23;;;17.80;99.90;;;;;;5026298;28;20315;-34
2023/05/08 01:06:09;;;;;;;10.10;9.20;;;17.80;99.90;;;;;;5043787;28;20216;-34
2023/05/08 01:08:39;;;;;;;11.05;10.02;;;17.80;99.90;;;;;;5033549;28;20266;-34
2023/05/08 01:11:34;;;;;;;11.10;10.00;;;17.80;99.90;;;;;;5050935;28;20235;-34
2023/05/08 01:14:27;;;;;;;11.00;9.90;;;17.80;99.90;;;;;;5038910;28;20211;-34
2023/05/08 01:17:13;;;;;;;12.70;11.60;;;17.80;99.90;;;;;;5031591;28;20470;-34
2023/05/08 01:20:01;;;;;;;12.20;11.00;;;18.00;99.90;;;;;;5045908;28;20196;-34
2023/05/08 01:22:50;;;;;;;11.60;10.40;;;17.90;99.90;;;;;;5045865;28;20606;-34
2023/05/08 01:25:50;;;;;;;11.15;10.15;;;17.80;99.90;;;;;;5032806;28;20204;-34
2023/05/08 01:28:52;;;;;;;13.40;10.63;;;17.80;99.90;;;;;;5036417;28;20570;-34
2023/05/08 01:31:48;;;;;;;11.13;10.02;;;17.70;99.90;;;;;;5034541;28;20605;-33
2023/05/08 01:34:25;;;;;;;10.65;9.55;;;17.70;99.90;;;;;;5025447;28;20291;-34
2023/05/08 01:37:07;;;;;;;10.65;9.65;;;17.60;99.90;;;;;;5041564;28;20247;-34
2023/05/08 01:40:05;;;;;;;11.48;10.38;;;17.60;99.90;;;;;;5026569;28;20216;-34
2023/05/08 01:42:38;;;;;;;10.68;9.70;;;17.60;99.90;;;;;;5046960;28;20294;-34
2023/05/08 01:45:21;;;;;;;11.02;10.02;;;17.60;99.90;;;;;;5034758;28;20199;-34
2023/05/08 01:47:58;;;;;;;11.02;9.93;;;17.50;99.90;;;;;;5026674;28;20260;-34
2023/05/08 01:50:35;;;;;;;13.88;12.48;;;17.50;99.90;;;;;;5041003;28;20295;-34
2023/05/08 01:53:16;;;;;;;11.30;10.30;;;17.50;99.90;;;;;;5026822;28;20258;-34
2023/05/08 01:55:46;;;;;;;11.60;10.45;;;17.50;99.90;;;;;;5027615;28;20196;-34
2023/05/08 01:58:15;;;;;;;11.18;10.18;;;17.50;99.90;;;;;;5046598;28;20220;-33
2023/05/08 02:00:48;;;;;;;11.05;9.95;;;17.50;99.90;;;;;;5034899;28;20198;-33
2023/05/08 02:03:19;;;;;;;11.05;9.95;;;17.50;99.90;;;;;;5039711;28;20522;-33
2023/05/08 02:05:51;;;;;;;13.40;12.20;;;17.50;99.90;;;;;;5028505;28;20413;-33
2023/05/08 02:08:20;;;;;;;11.43;10.27;;;17.70;99.90;;;;;;5036885;28;20710;-33
2023/05/08 02:10:50;;;;;;;13.00;11.40;;;17.70;99.90;;;;;;5040704;28;20610;-33
2023/05/08 02:13:20;;;;;;;12.45;11.02;;;17.70;99.90;;;;;;5035186;28;20213;-33
2023/05/08 02:15:49;;;;;;;12.30;11.10;;;17.60;99.90;;;;;;5046436;28;20236;-33
2023/05/08 02:18:21;;;;;;;17.98;15.82;;;17.60;99.90;;;;;;5035747;28;20678;-33
2023/05/08 02:20:53;;;;;;;21.77;18.90;;;17.60;99.90;;;;;;5042982;28;20295;-33
2023/05/08 02:23:25;;;;;;;26.33;22.63;;;17.60;99.90;;;;;;5040374;28;20239;-33
2023/05/08 02:25:56;;;;;;;28.85;24.15;;;17.60;99.90;;;;;;5044324;28;20193;-33
2023/05/08 02:28:24;;;;;;;32.65;26.15;;;17.60;99.90;;;;;;5043312;28;20297;-33
2023/05/08 02:30:55;;;;;;;34.65;28.63;;;17.70;99.90;;;;;;5027805;28;20244;-33
2023/05/08 02:33:26;;;;;;;32.92;26.60;;;17.70;99.90;;;;;;5035479;28;20216;-33
2023/05/08 02:35:57;;;;;;;33.55;27.30;;;17.70;99.90;;;;;;5030335;28;20215;-33
2023/05/08 02:38:31;;;;;;;36.83;28.30;;;17.80;99.90;;;;;;5040773;28;20200;-33
2023/05/08 02:41:04;;;;;;;38.85;29.45;;;17.80;99.90;;;;;;5045361;28;20299;-33
2023/05/08 02:43:34;;;;;;;37.20;30.85;;;17.80;99.90;;;;;;5043701;28;20295;-33
2023/05/08 02:46:22;;;;;;;35.78;30.17;;;17.80;99.90;;;;;;5031607;28;20232;-33
2023/05/08 02:48:57;;;;;;;37.40;30.52;;;17.80;99.90;;;;;;5031143;28;20220;-33
2023/05/08 02:51:38;;;;;;;36.92;29.58;;;17.90;99.90;;;;;;5043757;28;20208;-33
2023/05/08 02:54:13;;;;;;;40.60;31.30;;;17.90;99.90;;;;;;5034917;28;20235;-33
2023/05/08 02:56:52;;;;;;;45.88;34.45;;;17.90;99.90;;;;;;5041008;28;20246;-34
2023/05/08 02:59:29;;;;;;;45.42;33.70;;;17.90;99.90;;;;;;5038117;28;20327;-34
2023/05/08 03:02:09;;;;;;;43.65;33.42;;;17.90;99.90;;;;;;5027284;28;20212;-33
2023/05/08 03:04:46;;;;;;;45.72;35.05;;;17.90;99.90;;;;;;5023892;28;20284;-33
2023/05/08 03:07:18;;;;;;;40.10;35.22;;;17.90;99.90;;;;;;5024813;28;20420;-33
2023/05/08 03:09:54;;;;;;;47.92;37.58;;;18.10;99.90;;;;;;5025427;28;20585;-33
2023/05/08 03:12:26;;;;;;;46.15;35.03;;;18.10;99.90;;;;;;5024993;28;20315;-33
2023/05/08 03:15:08;;;;;;;47.72;41.38;;;18.10;99.90;;;;;;5023952;28;20423;-33
2023/05/08 03:17:37;;;;;;;47.33;36.22;;;18.30;99.90;;;;;;5025010;28;20724;-33
2023/05/08 03:20:08;;;;;;;47.38;36.00;;;18.30;99.90;;;;;;5025028;28;20208;-33
2023/05/08 03:22:43;;;;;;;46.03;35.47;;;18.20;99.90;;;;;;5025761;28;20441;-33
2023/05/08 03:25:14;;;;;;;46.50;34.00;;;18.20;99.90;;;;;;5024568;28;20979;-33
2023/05/08 03:27:42;;;;;;;48.67;37.47;;;18.20;99.90;;;;;;5040030;28;20267;-33
2023/05/08 03:30:14;;;;;;;54.00;40.17;;;18.10;99.90;;;;;;5023399;28;20212;-33
2023/05/08 03:32:47;;;;;;;54.67;40.33;;;18.10;99.90;;;;;;5024385;28;20251;-34
2023/05/08 03:35:22;;;;;;;49.45;39.10;;;18.10;99.90;;;;;;5024669;28;20303;-33
2023/05/08 03:37:51;;;;;;;53.95;38.33;;;18.00;99.90;;;;;;5025018;28;20213;-33
2023/05/08 03:40:23;;;;;;;51.55;39.08;;;18.00;99.90;;;;;;5025374;28;20208;-33
2023/05/08 03:42:52;;;;;;;52.08;39.28;;;18.00;99.90;;;;;;5039331;28;20197;-33
2023/05/08 03:45:19;;;;;;;54.90;40.55;;;18.00;99.90;;;;;;5024672;28;20209;-33
2023/05/08 03:47:53;;;;;;;59.22;41.15;;;18.00;99.90;;;;;;5024554;28;20203;-33
2023/05/08 03:50:25;;;;;;;55.30;41.15;;;18.00;99.90;;;;;;5039074;28;20585;-33
2023/05/08 03:52:53;;;;;;;52.17;39.38;;;17.90;99.90;;;;;;5039561;28;20208;-33
2023/05/08 03:55:25;;;;;;;58.60;42.33;;;17.90;99.90;;;;;;5024801;28;20295;-33
2023/05/08 03:58:05;;;;;;;59.03;41.67;;;18.00;99.90;;;;;;5037317;28;20244;-33
2023/05/08 04:00:55;;;;;;;53.40;39.90;;;17.90;99.90;;;;;;5043931;28;20287;-33
2023/05/08 04:03:48;;;;;;;60.65;43.50;;;17.90;99.90;;;;;;5042426;28;20212;-33
2023/05/08 04:06:34;;;;;;;62.97;43.45;;;17.90;99.90;;;;;;5042711;28;20233;-33
2023/05/08 04:09:49;;;;;;;57.65;43.45;;;17.90;99.90;;;;;;5044127;28;20296;-33
2023/05/08 04:12:39;;;;;;;58.17;41.45;;;17.90;99.90;;;;;;5042464;28;20199;-34
2023/05/08 04:15:20;;;;;;;65.40;43.75;;;17.80;99.90;;;;;;5041198;28;20208;-33
2023/05/08 04:17:59;;;;;;;62.35;44.78;;;17.80;99.90;;;;;;5024224;28;20262;-33
2023/05/08 04:20:28;;;;;;;67.47;44.00;;;17.80;99.90;;;;;;5026947;28;20212;-33
2023/05/08 04:22:58;;;;;;;65.75;44.65;;;17.80;99.90;;;;;;5026671;28;20197;-33
2023/05/08 04:25:27;;;;;;;62.80;43.67;;;17.80;99.90;;;;;;5026305;28;20736;-33
2023/05/08 04:27:56;;;;;;;62.80;43.70;;;17.80;99.90;;;;;;5028126;28;20189;-33
2023/05/08 04:30:26;;;;;;;60.05;41.67;;;17.80;99.90;;;;;;5028880;28;20208;-34
2023/05/08 04:32:54;;;;;;;60.42;42.42;;;17.80;99.90;;;;;;5027964;28;20952;-33
2023/05/08 04:35:24;;;;;;;61.10;42.97;;;17.80;99.90;;;;;;5026756;28;20257;-33
2023/05/08 04:37:54;;;;;;;68.47;44.53;;;17.80;99.90;;;;;;5028079;28;20221;-33
2023/05/08 04:40:21;;;;;;;66.00;43.90;;;17.80;99.90;;;;;;5026827;28;20255;-33
2023/05/08 04:42:48;;;;;;;69.40;44.83;;;17.80;99.90;;;;;;5033436;28;20192;-33
2023/05/08 04:45:19;;;;;;;76.07;47.30;;;17.80;99.90;;;;;;5046373;28;20212;-33
2023/05/08 04:47:48;;;;;;;65.97;42.05;;;17.80;99.90;;;;;;5045367;28;20739;-33
2023/05/08 04:50:19;;;;;;;63.60;41.90;;;17.80;99.90;;;;;;5046263;28;20200;-33
2023/05/08 04:52:46;;;;;;;72.18;45.33;;;17.80;99.90;;;;;;5046169;28;20213;-33
2023/05/08 04:55:15;;;;;;;70.65;43.75;;;17.80;99.90;;;;;;5045627;28;20306;-33
2023/05/08 04:57:43;;;;;;;76.32;45.75;;;17.70;99.90;;;;;;5045505;28;20259;-34
2023/05/08 05:00:15;;;;;;;82.60;46.88;;;17.70;99.90;;;;;;5029328;28;20639;-33
2023/05/08 05:02:50;;;;;;;77.03;47.25;;;17.70;99.90;;;;;;5047488;28;20235;-33
2023/05/08 05:05:23;;;;;;;80.15;45.97;;;17.70;99.90;;;;;;5046277;28;20603;-33
2023/05/08 05:07:57;;;;;;;78.32;48.08;;;17.70;99.90;;;;;;5045299;28;20729;-33
2023/05/08 05:10:24;;;;;;;81.95;48.03;;;17.70;99.90;;;;;;5045233;28;20212;-33
2023/05/08 05:12:51;;;;;;;82.88;48.10;;;17.60;99.90;;;;;;5046753;28;20224;-33
2023/05/08 05:15:21;;;;;;;80.65;47.05;;;17.60;99.90;;;;;;5045233;28;20223;-33
2023/05/08 05:17:48;;;;;;;85.85;46.97;;;17.60;99.90;;;;;;5029105;28;20315;-33
2023/05/08 05:20:18;;;;;;;77.88;47.17;;;17.60;99.90;;;;;;5045309;28;20578;-33
2023/05/08 05:22:47;;;;;;;72.63;44.60;;;17.60;99.90;;;;;;5046197;28;20744;-33
2023/05/08 05:25:17;;;;;;;80.57;46.65;;;17.60;99.90;;;;;;5046958;28;20196;-33
2023/05/08 05:27:44;;;;;;;86.97;47.47;;;17.60;99.90;;;;;;5028862;28;20677;-33
2023/05/08 05:30:12;;;;;;;85.30;48.92;;;17.60;99.90;;;;;;5046535;28;20212;-33
2023/05/08 05:32:39;;;;;;;88.47;50.92;;;17.60;99.90;;;;;;5047277;28;20298;-33
2023/05/08 05:35:10;;;;;;;85.32;48.95;;;17.60;99.90;;;;;;5046375;28;20299;-33
2023/05/08 05:37:38;;;;;;;90.47;49.47;;;17.60;99.90;;;;;;5046252;28;20228;-33
2023/05/08 05:40:06;;;;;;;89.40;47.42;;;17.60;99.90;;;;;;5046128;28;20204;-33
2023/05/08 05:42:38;;;;;;;85.22;49.08;;;17.60;99.90;;;;;;5045383;28;20269;-33
2023/05/08 05:45:09;;;;;;;93.82;51.03;;;17.60;99.90;;;;;;5045280;28;20472;-33
2023/05/08 05:47:36;;;;;;;85.90;48.75;;;17.60;99.90;;;;;;5044953;28;20259;-33
2023/05/08 05:50:05;;;;;;;84.05;48.75;;;17.60;99.90;;;;;;5044659;28;20215;-33
2023/05/08 05:52:38;;;;;;;79.53;47.45;;;17.60;99.90;;;;;;5044644;28;20196;-33
2023/05/08 05:55:09;;;;;;;86.38;47.72;;;17.60;99.90;;;;;;5045499;28;20290;-33
2023/05/08 05:57:39;;;;;;;84.22;47.63;;;17.60;99.90;;;;;;5024304;28;20244;-34
2023/05/08 06:00:10;;;;;;;79.88;46.38;;;17.60;99.90;;;;;;5026538;28;20229;-33
2023/05/08 06:02:37;;;;;;;76.03;44.63;;;17.60;99.90;;;;;;5025165;28;20607;-33
2023/05/08 06:05:11;;;;;;;75.20;44.85;;;17.60;99.90;;;;;;5026994;28;20777;-33
2023/05/08 06:07:38;;;;;;;73.07;43.75;;;17.60;99.90;;;;;;5025119;28;20224;-33
2023/05/08 06:10:06;;;;;;;68.18;42.22;;;17.60;99.90;;;;;;5026280;28;20585;-33
2023/05/08 06:12:36;;;;;;;73.10;43.08;;;17.60;99.90;;;;;;5025311;28;20291;-33
2023/05/08 06:15:03;;;;;;;72.63;44.30;;;17.70;99.90;;;;;;5026483;28;20197;-33
2023/05/08 06:17:31;;;;;;;68.70;41.15;;;17.70;99.90;;;;;;5024501;28;20319;-33
2023/05/08 06:20:00;;;;;;;68.65;41.55;;;17.70;99.90;;;;;;5041009;28;20777;-35
2023/05/08 06:22:32;;;;;;;67.55;41.15;;;17.70;99.90;;;;;;5026233;28;20305;-34
2023/05/08 06:25:01;;;;;;;69.88;41.58;;;17.70;99.90;;;;;;5026550;28;20251;-35
2023/05/08 06:27:33;;;;;;;61.78;38.13;;;17.70;99.90;;;;;;5041062;28;20782;-34
2023/05/08 06:30:00;;;;;;;73.10;41.60;;;17.70;99.90;;;;;;5041335;28;20698;-35
2023/05/08 06:32:27;;;;;;;66.28;38.60;;;17.70;99.90;;;;;;5008778;28;20599;-34
2023/05/08 06:34:57;;;;;;;64.18;38.53;;;17.80;99.90;;;;;;5041312;28;20320;-34
2023/05/08 06:37:27;;;;;;;68.40;40.10;;;17.80;99.90;;;;;;5024826;28;20669;-35
2023/05/08 06:39:54;;;;;;;66.03;40.55;;;17.80;99.90;;;;;;5025619;28;20228;-35
2023/05/08 06:42:37;;;;;;;67.05;40.00;;;17.90;99.90;;;;;;5028479;28;20222;-34
2023/05/08 06:45:05;;;;;;;72.97;42.85;;;17.90;99.90;;;;;;5045333;28;20322;-34
2023/05/08 06:47:35;;;;;;;77.03;43.95;;;17.90;99.90;;;;;;5031917;28;20674;-35
2023/05/08 06:50:07;;;;;;;72.15;41.78;;;18.00;99.90;;;;;;5040459;28;20742;-34
2023/05/08 06:52:34;;;;;;;75.65;42.13;;;18.00;99.90;;;;;;5025206;28;20263;-34
2023/05/08 06:55:02;;;;;;;67.93;40.22;;;18.00;99.90;;;;;;5025009;28;20223;-34
2023/05/08 06:57:29;;;;;;;65.55;39.45;;;18.10;99.90;;;;;;5023101;28;20787;-35
2023/05/08 06:59:58;;;;;;;68.70;41.90;;;18.10;99.90;;;;;;5040293;28;20742;-35
2023/05/08 07:02:26;;;;;;;76.13;43.25;;;18.20;99.90;;;;;;5040301;28;20230;-34
2023/05/08 07:04:58;;;;;;;80.45;43.63;;;18.20;99.90;;;;;;5026073;28;20587;-34
2023/05/08 07:07:25;;;;;;;81.65;44.85;;;18.20;99.90;;;;;;5025746;28;20201;-35
2023/05/08 07:09:52;;;;;;;86.90;47.42;;;18.30;99.90;;;;;;5024813;28;20329;-35
2023/05/08 07:12:19;;;;;;;88.47;47.63;;;18.30;99.90;;;;;;5024861;28;20657;-34
2023/05/08 07:14:51;;;;;;;83.95;47.30;;;18.30;99.90;;;;;;5023436;28;20213;-35
2023/05/08 07:17:18;;;;;;;85.15;47.35;;;18.40;99.90;;;;;;5025255;28;20252;-34
2023/05/08 07:19:49;;;;;;;82.47;47.40;;;18.50;99.90;;;;;;5041932;28;20230;-35
2023/05/08 07:22:17;;;;;;;85.07;45.83;;;18.50;99.90;;;;;;5026076;28;20225;-35
2023/05/08 07:24:44;;;;;;;94.88;49.30;;;18.50;99.90;;;;;;5039674;28;20554;-35
2023/05/08 07:27:14;;;;;;;88.32;49.13;;;18.50;99.90;;;;;;5039775;28;20359;-34
2023/05/08 07:29:43;;;;;;;93.35;49.72;;;18.50;99.90;;;;;;5024351;28;20209;-35
2023/05/08 07:32:14;;;;;;;81.72;47.50;;;18.50;99.90;;;;;;5022664;28;20215;-34
2023/05/08 07:34:42;;;;;;;83.35;46.15;;;18.50;99.90;;;;;;5024625;28;20216;-35
2023/05/08 07:37:14;;;;;;;81.00;44.97;;;18.50;99.90;;;;;;5025114;28;20291;-34
2023/05/08 07:39:43;;;;;;;84.20;46.22;;;18.50;99.90;;;;;;5039462;28;20267;-34
2023/05/08 07:42:10;;;;;;;81.15;46.78;;;18.50;99.90;;;;;;5024657;28;20238;-35
2023/05/08 07:44:37;;;;;;;76.82;44.75;;;18.60;99.90;;;;;;5039656;28;20236;-35
2023/05/08 07:47:22;;;;;;;83.47;45.90;;;18.60;99.90;;;;;;5025402;28;20223;-34
2023/05/08 07:49:50;;;;;;;72.57;43.80;;;18.70;99.90;;;;;;5023087;28;20296;-35
2023/05/08 07:52:19;;;;;;;73.28;43.03;;;18.70;99.90;;;;;;5022952;28;20201;-34
2023/05/08 07:54:52;;;;;;;79.63;44.03;;;18.80;99.90;;;;;;5026879;28;20207;-35
2023/05/08 07:57:19;;;;;;;76.53;44.08;;;18.80;99.90;;;;;;5043410;28;20667;-35
2023/05/08 07:59:46;;;;;;;68.30;41.67;;;18.90;99.90;;;;;;5028394;28;20683;-35
2023/05/08 08:02:15;;;;;;;67.43;41.63;;;19.00;99.90;;;;;;5042721;28;20232;-35
2023/05/08 08:04:43;;;;;;;68.55;41.60;;;19.00;99.90;;;;;;5028666;28;20241;-34
2023/05/08 08:07:12;;;;;;;62.92;38.92;;;19.00;99.90;;;;;;5043360;28;20201;-35
2023/05/08 08:09:47;;;;;;;61.35;38.53;;;19.10;99.90;;;;;;5028208;28;20200;-35
2023/05/08 08:12:14;;;;;;;62.78;39.88;;;19.20;99.90;;;;;;5027503;28;20624;-35
2023/05/08 08:14:41;;;;;;;63.88;39.60;;;19.20;99.90;;;;;;5028046;28;20290;-34
2023/05/08 08:17:11;;;;;;;56.42;38.35;;;19.20;99.90;;;;;;5028526;28;20192;-35
2023/05/08 08:19:41;;;;;;;59.63;37.75;;;19.30;99.90;;;;;;5028133;28;20597;-34
2023/05/08 08:22:10;;;;;;;59.85;37.83;;;19.30;99.90;;;;;;5043083;28;20204;-34
2023/05/08 08:24:40;;;;;;;59.42;36.85;;;19.40;99.90;;;;;;5028198;28;20780;-34
2023/05/08 08:27:07;;;;;;;62.20;38.35;;;19.40;99.90;;;;;;5043351;28;20209;-34
2023/05/08 08:29:37;;;;;;;56.58;35.08;;;19.40;99.90;;;;;;5028909;28;20745;-34
2023/05/08 08:32:04;;;;;;;52.33;33.70;;;19.50;99.90;;;;;;5028267;28;20215;-34
2023/05/08 08:34:37;;;;;;;56.03;34.70;;;19.50;99.90;;;;;;5042941;28;20235;-34
2023/05/08 08:37:09;;;;;;;61.78;36.63;;;19.60;99.90;;;;;;5042992;28;20304;-34
2023/05/08 08:39:40;;;;;;;54.55;33.83;;;19.60;99.90;;;;;;5042188;28;20274;-34
2023/05/08 08:42:08;;;;;;;55.05;32.95;;;19.60;99.90;;;;;;5042440;28;20254;-34
2023/05/08 08:44:38;;;;;;;62.63;37.15;;;19.70;99.90;;;;;;5042508;28;20355;-34
2023/05/08 08:47:15;;;;;;;58.50;34.67;;;19.80;99.90;;;;;;5045120;28;20204;-34
2023/05/08 08:49:49;;;;;;;58.67;35.42;;;19.80;99.90;;;;;;5046045;28;20243;-34
2023/05/08 08:52:27;;;;;;;54.17;33.38;;;19.90;99.90;;;;;;5045695;28;20200;-34
2023/05/08 08:55:01;;;;;;;54.20;33.90;;;20.00;99.90;;;;;;5046130;28;20223;-33
2023/05/08 08:57:32;;;;;;;58.55;33.88;;;20.00;99.90;;;;;;5045766;28;20243;-34
2023/05/08 09:00:03;;;;;;;60.63;34.78;;;20.10;99.90;;;;;;5047763;28;20273;-33
2023/05/08 09:02:31;;;;;;;54.50;32.45;;;20.20;99.90;;;;;;5047171;28;20285;-34
2023/05/08 09:05:01;;;;;;;56.92;32.08;;;20.20;99.90;;;;;;5046841;28;20277;-34
2023/05/08 09:07:32;;;;;;;52.22;31.73;;;20.30;99.90;;;;;;5047054;28;21030;-33
2023/05/08 09:09:59;;;;;;;50.33;29.83;;;20.30;99.90;;;;;;5047183;28;20208;-33
2023/05/08 09:12:27;;;;;;;56.97;33.35;;;20.40;99.90;;;;;;5045789;28;20200;-34
2023/05/08 09:15:01;;;;;;;57.55;31.95;;;20.50;99.90;;;;;;5046526;28;20590;-33
2023/05/08 09:17:29;;;;;;;56.80;32.30;;;20.50;99.90;;;;;;5045691;28;20961;-34
2023/05/08 09:19:59;;;;;;;56.90;32.10;;;20.60;99.90;;;;;;5044853;28;20201;-34
2023/05/08 09:22:29;;;;;;;50.10;30.45;;;20.60;99.90;;;;;;5047262;28;20204;-33
2023/05/08 09:25:02;;;;;;;54.08;33.35;;;20.70;99.90;;;;;;5045597;28;20205;-33
2023/05/08 09:27:31;;;;;;;52.47;31.95;;;20.70;99.90;;;;;;5045460;28;20282;-34
2023/05/08 09:30:05;;;;;;;57.08;33.03;;;20.80;99.90;;;;;;5045401;28;20287;-33
2023/05/08 09:32:39;;;;;;;60.25;34.58;;;20.80;99.90;;;;;;5045428;28;20200;-33
2023/05/08 09:35:10;;;;;;;61.80;35.28;;;20.80;99.90;;;;;;5047465;28;20203;-33
2023/05/08 09:37:40;;;;;;;64.35;34.78;;;20.80;99.90;;;;;;5044349;28;20204;-33
2023/05/08 09:40:18;;;;;;;61.22;35.55;;;20.80;99.90;;;;;;5045380;28;20196;-33
2023/05/08 09:42:52;;;;;;;60.17;33.80;;;20.80;99.90;;;;;;5029110;28;20200;-33
2023/05/08 09:45:30;;;;;;;63.55;35.70;;;20.90;99.90;;;;;;5046800;28;20433;-33
2023/05/08 09:48:00;;;;;;;62.08;35.22;;;20.90;99.90;;;;;;5044887;28;20223;-33
2023/05/08 09:50:28;;;;;;;62.08;35.13;;;20.90;99.90;;;;;;5045775;28;20219;-33
2023/05/08 09:52:55;;;;;;;64.93;36.15;;;20.90;99.90;;;;;;5044463;28;20648;-33
2023/05/08 09:55:23;;;;;;;63.92;37.03;;;20.90;99.90;;;;;;5045585;28;20291;-33
2023/05/08 09:57:58;;;;;;;64.65;37.25;;;21.00;99.90;;;;;;5046056;28;20724;-33
2023/05/08 10:00:27;;;;;;;63.80;36.25;;;21.00;99.90;;;;;;5044609;28;20650;-33
2023/05/08 10:03:00;;;;;;;55.38;33.55;;;21.00;99.90;;;;;;5044711;28;20218;-34
2023/05/08 10:05:33;;;;;;;62.72;34.10;;;21.10;99.90;;;;;;5044913;28;20305;-33
2023/05/08 10:08:25;;;;;;;63.00;35.22;;;21.10;99.90;;;;;;5046825;28;20684;-33
2023/05/08 10:11:18;;;;;;;57.47;33.60;;;21.20;99.90;;;;;;5044188;28;20215;-34
2023/05/08 10:13:50;;;;;;;56.00;33.38;;;21.20;99.90;;;;;;5046268;28;20471;-33
2023/05/08 10:16:21;;;;;;;49.85;30.85;;;21.30;99.90;;;;;;5046132;28;20265;-34
2023/05/08 10:18:59;;;;;;;44.08;28.05;;;21.30;99.90;;;;;;5044587;28;20330;-34
2023/05/08 10:21:30;;;;;;;51.90;31.13;;;21.30;99.90;;;;;;5045767;28;20203;-34
2023/05/08 10:24:03;;;;;;;50.03;30.50;;;21.40;99.90;;;;;;5045696;28;20251;-34
2023/05/08 10:26:36;;;;;;;48.50;29.80;;;21.40;99.90;;;;;;5045492;28;20295;-34
2023/05/08 10:29:09;;;;;;;40.47;27.48;;;21.40;99.90;;;;;;5012073;28;20307;-34
2023/05/08 10:31:42;;;;;;;40.20;26.85;;;21.40;99.90;;;;;;5025724;28;20231;-34
2023/05/08 10:34:17;;;;;;;38.10;26.00;;;21.40;99.90;;;;;;5025371;28;20197;-34
2023/05/08 10:36:46;;;;;;;45.67;27.13;;;21.40;99.90;;;;;;5025800;28;20299;-34
2023/05/08 10:39:17;;;;;;;43.47;26.17;;;21.40;99.90;;;;;;5024387;28;20220;-34
2023/05/08 10:41:45;;;;;;;44.83;26.63;;;21.40;99.90;;;;;;5024689;28;20267;-34
2023/05/08 10:44:16;;;;;;;35.28;23.17;;;21.40;99.90;;;;;;5042236;28;20215;-34
2023/05/08 10:46:56;;;;;;;31.58;19.90;;;21.40;99.90;;;;;;5045332;28;20321;-34
2023/05/08 10:49:39;;;;;;;22.27;16.40;;;21.50;99.90;;;;;;5044148;28;20208;-34
2023/05/08 10:52:19;;;;;;;20.13;13.88;;;21.50;99.90;;;;;;5045539;28;20262;-34
2023/05/08 10:54:52;;;;;;;23.60;16.83;;;21.50;99.90;;;;;;5045762;28;20223;-34
2023/05/08 10:57:21;;;;;;;28.33;17.40;;;21.50;99.90;;;;;;5043686;28;20332;-34
2023/05/08 10:59:51;;;;;;;24.98;15.57;;;21.50;99.90;;;;;;5045334;28;20223;-34
2023/05/08 11:02:35;;;;;;;24.30;17.58;;;21.60;99.90;;;;;;5026811;28;20327;-34
2023/05/08 11:05:19;;;;;;;22.48;15.95;;;21.60;99.90;;;;;;5043781;28;20574;-34
2023/05/08 11:07:56;;;;;;;31.80;20.17;;;21.60;99.90;;;;;;5045189;28;20567;-34
2023/05/08 11:10:36;;;;;;;27.88;18.40;;;21.60;99.90;;;;;;5044941;28;20223;-35
2023/05/08 11:13:06;;;;;;;24.17;17.55;;;21.60;99.90;;;;;;5044721;28;20210;-34
2023/05/08 11:15:40;;;;;;;24.98;17.75;;;21.70;99.90;;;;;;5043253;28;20212;-34
2023/05/08 11:18:11;;;;;;;22.08;15.93;;;21.70;99.90;;;;;;5042605;28;20222;-34
2023/05/08 11:20:56;;;;;;;20.67;15.80;;;21.80;99.90;;;;;;5043328;28;20682;-34
2023/05/08 11:23:32;;;;;;;21.25;16.05;;;21.80;99.90;;;;;;5043309;28;20311;-34
2023/05/08 11:26:04;;;;;;;22.48;15.57;;;21.90;99.90;;;;;;5043216;28;20196;-34
2023/05/08 11:28:36;;;;;;;21.33;14.85;;;21.90;99.90;;;;;;5044299;28;20639;-34
2023/05/08 11:31:05;;;;;;;18.33;13.63;;;21.90;99.90;;;;;;5045192;28;20297;-34
2023/05/08 11:33:40;;;;;;;19.13;13.57;;;22.00;99.90;;;;;;5043063;28;20230;-34
2023/05/08 11:36:25;;;;;;;21.10;14.32;;;22.00;99.90;;;;;;5035692;28;20204;-34
2023/05/08 11:39:12;;;;;;;17.70;13.23;;;22.00;99.90;;;;;;5024847;28;20248;-34
2023/05/08 11:41:39;;;;;;;17.08;12.52;;;22.10;99.90;;;;;;5040034;28;20254;-34
2023/05/08 11:44:19;;;;;;;18.83;13.45;;;22.20;99.90;;;;;;5041299;28;20200;-34
2023/05/08 11:46:52;;;;;;;17.20;13.07;;;22.20;99.90;;;;;;5044908;28;20206;-34
2023/05/08 11:49:22;;;;;;;20.88;14.38;;;22.30;99.90;;;;;;5043447;28;20204;-34
2023/05/08 11:51:57;;;;;;;19.05;13.32;;;22.30;99.90;;;;;;5044061;28;20224;-34
2023/05/08 11:54:32;;;;;;;20.63;14.38;;;22.40;99.90;;;;;;5043666;28;20208;-34
2023/05/08 11:57:00;;;;;;;18.17;13.20;;;22.40;99.90;;;;;;5027226;28;20285;-33
2023/05/08 11:59:28;;;;;;;17.55;12.57;;;22.50;99.90;;;;;;5043022;28;20228;-34
2023/05/08 12:02:00;;;;;;;16.75;12.20;;;22.50;99.90;;;;;;5044539;28;20443;-34
2023/05/08 12:04:46;;;;;;;16.38;11.45;;;22.50;99.90;;;;;;5043303;28;20225;-34
2023/05/08 12:07:17;;;;;;;21.98;14.38;;;22.60;99.90;;;;;;5043239;28;20286;-34
2023/05/08 12:09:46;;;;;;;22.27;14.88;;;22.60;99.90;;;;;;5043286;28;20588;-34
2023/05/08 12:12:17;;;;;;;22.58;15.20;;;22.60;99.90;;;;;;5026137;28;20207;-34
2023/05/08 12:14:49;;;;;;;25.80;16.52;;;22.70;99.90;;;;;;5042801;28;20220;-34
2023/05/08 12:17:19;;;;;;;22.38;15.60;;;22.70;99.90;;;;;;5042815;28;20554;-34
2023/05/08 12:19:55;;;;;;;25.30;17.08;;;22.70;99.90;;;;;;5042895;28;20224;-34
2023/05/08 12:22:25;;;;;;;26.45;16.70;;;22.70;99.90;;;;;;5044509;28;20238;-34
2023/05/08 12:24:59;;;;;;;24.83;16.13;;;22.70;99.90;;;;;;5044021;28;20246;-34
2023/05/08 12:27:28;;;;;;;26.10;17.42;;;22.80;99.90;;;;;;5043628;28;20644;-34
2023/05/08 12:29:56;;;;;;;24.77;16.88;;;22.80;99.90;;;;;;5042810;28;20947;-34
2023/05/08 12:32:29;;;;;;;28.23;18.20;;;22.80;99.90;;;;;;5042185;28;20212;-34
2023/05/08 12:34:57;;;;;;;25.30;17.30;;;22.80;99.90;;;;;;5042471;28;20246;-34
2023/05/08 12:37:27;;;;;;;22.92;15.75;;;22.80;99.90;;;;;;5042412;28;20315;-34
2023/05/08 12:39:57;;;;;;;24.65;15.35;;;22.80;99.90;;;;;;5042922;28;20259;-34
2023/05/08 12:42:43;;;;;;;20.05;13.20;;;22.90;99.90;;;;;;5046452;28;20208;-34
2023/05/08 12:45:25;;;;;;;20.90;13.90;;;22.90;99.90;;;;;;5045295;28;20248;-34
2023/05/08 12:47:58;;;;;;;21.08;14.30;;;23.00;99.90;;;;;;5048079;28;20203;-34
2023/05/08 12:50:26;;;;;;;24.45;14.82;;;23.00;99.90;;;;;;5048262;28;20687;-34
2023/05/08 12:53:03;;;;;;;22.08;14.77;;;23.10;99.90;;;;;;5047877;28;20231;-34
2023/05/08 12:55:33;;;;;;;21.30;14.60;;;23.10;99.90;;;;;;5047622;28;20695;-34